createdAt,value
2022-08-26T00:00:07.933Z,76.83
2022-08-26T00:02:40.254Z,75.87
2022-08-26T00:05:10.096Z,77.21
2022-08-26T00:07:38.049Z,76.38
2022-08-26T00:10:06.590Z,76.96
2022-08-26T00:12:37.299Z,77.21
2022-08-26T00:15:08.070Z,76.58
2022-08-26T00:17:36.674Z,76.61
2022-08-26T00:20:12.901Z,76.49
2022-08-26T00:22:42.369Z,76.00
2022-08-26T00:25:10.361Z,77.06
2022-08-26T00:27:38.381Z,76.97
2022-08-26T00:30:10.210Z,79.70
2022-08-26T00:32:38.062Z,78.15
2022-08-26T00:35:08.877Z,76.85
2022-08-26T00:37:36.640Z,77.50
2022-08-26T00:40:07.075Z,76.96
2022-08-26T00:42:35.211Z,77.96
2022-08-26T00:45:11.590Z,78.46
2022-08-26T00:47:53.512Z,78.55
2022-08-26T00:50:34.127Z,78.57
2022-08-26T00:53:03.952Z,78.12
2022-08-26T00:55:38.077Z,78.75
2022-08-26T00:58:07.160Z,77.32
2022-08-26T01:00:35.820Z,78.59
2022-08-26T01:03:05.245Z,79.30
2022-08-26T01:05:33.721Z,79.16
2022-08-26T01:08:01.612Z,78.12
2022-08-26T01:10:31.890Z,77.92
2022-08-26T01:13:02.763Z,77.98
2022-08-26T01:15:44.642Z,78.29
2022-08-26T01:18:13.932Z,79.72
2022-08-26T01:20:57.804Z,79.27
2022-08-26T01:23:33.190Z,79.14
2022-08-26T01:26:05.538Z,78.65
2022-08-26T01:28:35.962Z,79.74
2022-08-26T01:31:05.759Z,79.07
2022-08-26T01:34:04.913Z,78.95
2022-08-26T01:36:32.789Z,79.90
2022-08-26T01:39:00.803Z,79.60
2022-08-26T01:41:34.084Z,79.87
2022-08-26T01:44:03.783Z,81.06
2022-08-26T01:46:32.180Z,79.28
2022-08-26T01:49:03.142Z,78.95
2022-08-26T01:51:38.961Z,79.90
2022-08-26T01:54:11.943Z,80.10
2022-08-26T01:56:42.390Z,81.06
2022-08-26T01:59:13.011Z,80.58
2022-08-26T02:01:41.516Z,80.72
2022-08-26T02:04:37.628Z,80.66
2022-08-26T02:07:07.480Z,79.78
2022-08-26T02:09:41.335Z,80.45
2022-08-26T02:12:11.868Z,80.64
2022-08-26T02:14:50.331Z,81.87
2022-08-26T02:17:23.481Z,80.58
2022-08-26T02:19:51.866Z,80.40
2022-08-26T02:22:21.517Z,80.68
2022-08-26T02:24:52.930Z,80.42
2022-08-26T02:27:33.024Z,81.75
2022-08-26T02:30:13.981Z,81.68
2022-08-26T02:32:42.371Z,83.73
2022-08-26T02:35:12.510Z,81.99
2022-08-26T02:37:41.999Z,81.27
2022-08-26T02:40:11.736Z,80.81
2022-08-26T02:42:39.531Z,80.72
2022-08-26T02:45:08.464Z,81.29
2022-08-26T02:47:37.588Z,82.89
2022-08-26T02:50:06.635Z,81.65
2022-08-26T02:52:36.343Z,81.65
2022-08-26T02:55:06.701Z,81.72
2022-08-26T02:57:34.851Z,81.94
2022-08-26T03:00:04.662Z,81.08
2022-08-26T03:02:32.431Z,83.23
2022-08-26T03:05:02.218Z,89.05
2022-08-26T03:07:31.474Z,87.10
2022-08-26T03:09:59.352Z,88.73
2022-08-26T03:12:27.233Z,84.92
2022-08-26T03:14:55.310Z,87.75
2022-08-26T03:17:23.950Z,81.71
2022-08-26T03:19:57.210Z,81.42
2022-08-26T03:22:27.085Z,81.31
2022-08-26T03:24:55.345Z,80.07
2022-08-26T03:27:23.064Z,80.40
2022-08-26T03:30:11.840Z,82.24
2022-08-26T03:32:41.537Z,82.83
2022-08-26T03:35:10.064Z,81.95
2022-08-26T03:37:38.762Z,83.76
2022-08-26T03:40:10.160Z,83.24
2022-08-26T03:42:40.132Z,82.33
2022-08-26T03:45:14.123Z,84.51
2022-08-26T03:47:43.352Z,83.20
2022-08-26T03:50:14.894Z,82.16
2022-08-26T03:52:44.208Z,84.38
2022-08-26T03:55:13.085Z,82.59
2022-08-26T03:57:41.541Z,82.11
2022-08-26T04:00:18.519Z,82.50
2022-08-26T04:02:48.906Z,83.41
2022-08-26T04:05:18.214Z,84.19
2022-08-26T04:07:47.514Z,84.23
2022-08-26T04:10:20.376Z,84.32
2022-08-26T04:12:48.654Z,84.07
2022-08-26T04:15:17.795Z,87.52
2022-08-26T04:17:45.741Z,85.91
2022-08-26T04:20:16.269Z,84.33
2022-08-26T04:22:45.833Z,84.36
2022-08-26T04:25:14.032Z,83.50
2022-08-26T04:27:41.773Z,83.21
2022-08-26T04:30:10.622Z,84.84
2022-08-26T04:32:38.811Z,85.44
2022-08-26T04:35:10.004Z,84.94
2022-08-26T04:37:38.567Z,83.81
2022-08-26T04:40:06.947Z,84.38
2022-08-26T04:42:34.844Z,84.85
2022-08-26T04:45:05.815Z,89.09
2022-08-26T04:47:38.142Z,86.92
2022-08-26T04:50:07.852Z,84.71
2022-08-26T04:52:36.902Z,84.15
2022-08-26T04:55:08.313Z,84.07
2022-08-26T04:57:36.746Z,83.32
2022-08-26T05:00:07.094Z,83.42
2022-08-26T05:02:35.023Z,84.89
2022-08-26T05:05:04.842Z,84.79
2022-08-26T05:07:35.093Z,84.96
2022-08-26T05:10:04.305Z,85.04
2022-08-26T05:12:36.704Z,86.17
2022-08-26T05:15:07.824Z,85.55
2022-08-26T05:17:37.594Z,87.24
2022-08-26T05:20:07.276Z,88.46
2022-08-26T05:22:35.984Z,87.13
2022-08-26T05:25:04.421Z,86.07
2022-08-26T05:27:33.166Z,79.61
2022-08-26T05:30:01.911Z,83.17
2022-08-26T05:32:30.295Z,84.01
2022-08-26T05:35:00.453Z,79.43
2022-08-26T05:37:30.652Z,82.68
2022-08-26T05:40:02.850Z,81.41
2022-08-26T05:42:32.891Z,81.23
2022-08-26T05:45:05.543Z,77.20
2022-08-26T05:47:39.010Z,72.30
2022-08-26T05:50:11.531Z,75.81
2022-08-26T05:52:39.872Z,75.96
2022-08-26T05:55:09.485Z,73.43
2022-08-26T05:57:40.557Z,68.07
2022-08-26T06:00:13.804Z,67.20
2022-08-26T06:02:42.034Z,68.75
2022-08-26T06:05:12.775Z,64.07
2022-08-26T06:08:02.509Z,60.41
2022-08-26T06:10:33.483Z,58.74
2022-08-26T06:13:11.534Z,56.79
2022-08-26T06:15:49.346Z,57.77
2022-08-26T06:18:21.922Z,57.93
2022-08-26T06:20:58.049Z,55.70
2022-08-26T06:23:50.663Z,56.22
2022-08-26T06:26:20.394Z,56.85
2022-08-26T06:28:49.352Z,53.41
2022-08-26T06:31:17.503Z,50.43
2022-08-26T06:33:47.789Z,51.41
2022-08-26T06:36:21.943Z,49.57
2022-08-26T06:38:56.963Z,50.34
2022-08-26T06:41:26.389Z,47.50
2022-08-26T06:43:58.283Z,48.77
2022-08-26T06:46:32.802Z,45.64
2022-08-26T06:49:07.786Z,45.34
2022-08-26T06:51:41.580Z,43.64
2022-08-26T06:54:22.612Z,44.81
2022-08-26T06:57:12.254Z,43.63
2022-08-26T06:59:45.901Z,41.58
2022-08-26T07:02:15.599Z,42.12
2022-08-26T07:04:58.566Z,40.08
2022-08-26T07:07:38.992Z,42.71
2022-08-26T07:10:10.933Z,40.26
2022-08-26T07:12:39.100Z,42.94
2022-08-26T07:15:12.812Z,42.04
2022-08-26T07:17:40.735Z,39.65
2022-08-26T07:20:10.170Z,37.48
2022-08-26T07:22:38.562Z,37.36
2022-08-26T07:25:08.443Z,36.60
2022-08-26T07:27:37.800Z,35.34
2022-08-26T07:30:07.443Z,35.98
2022-08-26T07:32:35.623Z,37.26
2022-08-26T07:35:04.665Z,36.20
2022-08-26T07:37:35.644Z,34.73
2022-08-26T07:40:09.251Z,33.88
2022-08-26T07:42:38.047Z,35.37
2022-08-26T07:45:06.665Z,36.69
2022-08-26T07:47:37.425Z,36.54
2022-08-26T07:50:10.564Z,34.96
2022-08-26T07:52:43.372Z,36.02
2022-08-26T07:55:13.264Z,36.91
2022-08-26T07:57:41.768Z,35.46
2022-08-26T08:00:18.508Z,36.69
2022-08-26T08:02:50.530Z,33.63
2022-08-26T08:05:33.348Z,35.00
2022-08-26T08:08:27.415Z,32.45
2022-08-26T08:10:59.640Z,33.17
2022-08-26T08:13:28.598Z,33.80
2022-08-26T08:15:56.656Z,34.75
2022-08-26T08:18:24.542Z,33.66
2022-08-26T08:20:54.546Z,32.40
2022-08-26T08:23:33.515Z,32.31
2022-08-26T08:26:03.834Z,32.33
2022-08-26T08:28:31.675Z,33.42
2022-08-26T08:31:00.208Z,33.34
2022-08-26T08:33:30.369Z,33.84
2022-08-26T08:35:59.066Z,31.39
2022-08-26T08:38:27.815Z,30.32
2022-08-26T08:40:55.932Z,33.77
2022-08-26T08:43:46.623Z,32.69
2022-08-26T08:46:17.052Z,32.45
2022-08-26T08:48:53.766Z,29.14
2022-08-26T08:51:32.196Z,32.56
2022-08-26T08:54:10.153Z,30.94
2022-08-26T08:56:59.921Z,34.33
2022-08-26T08:59:34.661Z,31.92
2022-08-26T09:02:09.491Z,31.95
2022-08-26T09:05:06.705Z,32.93
2022-08-26T09:07:47.138Z,35.78
2022-08-26T09:10:42.780Z,33.60
2022-08-26T09:13:16.945Z,33.98
2022-08-26T09:15:50.912Z,32.32
2022-08-26T09:18:26.287Z,34.27
2022-08-26T09:21:08.618Z,31.99
2022-08-26T09:23:41.906Z,30.89
2022-08-26T09:26:28.703Z,36.29
2022-08-26T09:29:04.468Z,36.24
2022-08-26T09:31:36.042Z,34.63
2022-08-26T09:34:24.176Z,34.67
2022-08-26T09:37:00.107Z,34.01
2022-08-26T09:39:38.913Z,33.96
2022-08-26T09:42:10.896Z,36.09
2022-08-26T09:45:00.416Z,33.00
2022-08-26T09:47:36.661Z,33.51
2022-08-26T09:50:34.953Z,36.14
2022-08-26T09:53:14.889Z,37.24
2022-08-26T09:55:48.052Z,34.87
2022-08-26T09:58:38.219Z,34.77
2022-08-26T10:01:09.032Z,36.01
2022-08-26T10:03:41.370Z,35.34
2022-08-26T10:06:21.008Z,33.69
2022-08-26T10:08:54.285Z,33.18
2022-08-26T10:11:25.884Z,34.84
2022-08-26T10:13:59.554Z,33.44
2022-08-26T10:16:42.379Z,33.34
2022-08-26T10:19:16.952Z,30.08
2022-08-26T10:22:00.073Z,31.04
2022-08-26T10:24:32.530Z,28.63
2022-08-26T10:27:19.350Z,31.17
2022-08-26T10:29:51.609Z,29.45
2022-08-26T10:32:41.543Z,27.65
2022-08-26T10:35:12.874Z,28.14
2022-08-26T10:37:48.324Z,29.24
2022-08-26T10:40:30.935Z,29.06
2022-08-26T10:43:11.242Z,28.47
2022-08-26T10:45:50.523Z,24.99
2022-08-26T10:48:47.610Z,28.28
2022-08-26T10:51:20.741Z,29.37
2022-08-26T10:54:36.723Z,29.57
2022-08-26T10:57:09.678Z,28.38
2022-08-26T10:59:46.379Z,28.24
2022-08-26T11:02:15.016Z,28.66
2022-08-26T11:04:58.979Z,23.45
2022-08-26T11:07:43.394Z,22.46
2022-08-26T11:10:17.356Z,22.76
2022-08-26T11:12:49.400Z,21.31
2022-08-26T11:15:24.725Z,22.50
2022-08-26T11:17:53.240Z,24.33
2022-08-26T11:20:33.137Z,25.54
2022-08-26T11:23:15.257Z,25.17
2022-08-26T11:26:16.401Z,25.51
2022-08-26T11:29:03.119Z,24.70
2022-08-26T11:31:39.183Z,22.42
2022-08-26T11:34:14.052Z,20.65
2022-08-26T11:36:51.561Z,22.15
2022-08-26T11:39:30.907Z,23.79
2022-08-26T11:42:27.755Z,25.42
2022-08-26T11:45:01.472Z,24.28
2022-08-26T11:47:33.600Z,24.22
2022-08-26T11:50:18.953Z,22.55
2022-08-26T11:53:06.106Z,22.61
2022-08-26T11:55:37.985Z,21.76
2022-08-26T11:58:07.736Z,25.83
2022-08-26T12:00:49.227Z,25.15
2022-08-26T12:03:23.061Z,23.54
2022-08-26T12:05:52.853Z,26.03
2022-08-26T12:08:27.939Z,24.81
2022-08-26T12:11:09.632Z,23.03
2022-08-26T12:13:39.705Z,23.45
2022-08-26T12:16:08.524Z,25.63
2022-08-26T12:18:39.129Z,27.09
2022-08-26T12:21:26.754Z,23.72
2022-08-26T12:24:01.469Z,25.17
2022-08-26T12:26:32.978Z,26.48
2022-08-26T12:29:20.281Z,25.93
2022-08-26T12:32:21.412Z,23.74
2022-08-26T12:34:52.320Z,22.79
2022-08-26T12:37:21.542Z,23.92
2022-08-26T12:39:50.707Z,24.37
2022-08-26T12:42:19.428Z,23.71
2022-08-26T12:45:06.623Z,24.82
2022-08-26T12:47:42.661Z,23.59
2022-08-26T12:50:22.598Z,24.61
2022-08-26T12:52:57.878Z,24.66
2022-08-26T12:55:44.277Z,24.73
2022-08-26T12:58:32.117Z,24.91
2022-08-26T13:01:07.008Z,23.66
2022-08-26T13:03:35.763Z,23.80
2022-08-26T13:06:29.896Z,24.56
2022-08-26T13:09:25.162Z,25.17
2022-08-26T13:11:53.367Z,22.01
2022-08-26T13:14:24.710Z,26.96
2022-08-26T13:16:54.954Z,24.47
2022-08-26T13:19:25.971Z,25.21
2022-08-26T13:21:57.269Z,25.60
2022-08-26T13:24:38.682Z,25.68
2022-08-26T13:27:14.893Z,24.43
2022-08-26T13:29:43.238Z,26.27
2022-08-26T13:32:12.009Z,25.06
2022-08-26T13:34:41.041Z,25.62
2022-08-26T13:37:09.369Z,25.44
2022-08-26T13:39:39.869Z,24.96
2022-08-26T13:42:09.267Z,24.42
2022-08-26T13:44:39.272Z,25.21
2022-08-26T13:47:07.683Z,23.26
2022-08-26T13:49:36.777Z,25.93
2022-08-26T13:52:05.542Z,26.50
2022-08-26T13:54:33.920Z,24.90
2022-08-26T13:57:02.216Z,23.78
2022-08-26T13:59:30.656Z,24.38
2022-08-26T14:01:59.042Z,24.55
2022-08-26T14:04:27.905Z,27.51
2022-08-26T14:06:56.395Z,27.37
2022-08-26T14:09:25.008Z,26.87
2022-08-26T14:11:54.266Z,25.27
2022-08-26T14:14:23.450Z,26.69
2022-08-26T14:16:59.435Z,26.83
2022-08-26T14:19:30.370Z,26.47
2022-08-26T14:22:01.029Z,27.37
2022-08-26T14:24:29.887Z,27.46
2022-08-26T14:26:57.872Z,27.76
2022-08-26T14:29:27.048Z,28.76
2022-08-26T14:31:56.652Z,26.75
2022-08-26T14:34:25.169Z,27.91
2022-08-26T14:36:52.970Z,28.94
2022-08-26T14:39:21.492Z,27.14
2022-08-26T14:41:53.757Z,27.47
2022-08-26T14:44:27.150Z,28.71
2022-08-26T14:46:55.414Z,27.89
2022-08-26T14:49:24.517Z,27.29
2022-08-26T14:51:52.340Z,29.13
2022-08-26T14:54:20.772Z,24.62
2022-08-26T14:56:55.521Z,26.75
2022-08-26T14:59:26.365Z,28.21
2022-08-26T15:01:55.632Z,28.97
2022-08-26T15:04:24.362Z,26.55
2022-08-26T15:06:54.055Z,30.75
2022-08-26T15:09:23.167Z,29.69
2022-08-26T15:11:51.467Z,31.57
2022-08-26T15:14:20.405Z,28.76
2022-08-26T15:16:50.575Z,27.07
2022-08-26T15:19:18.935Z,26.78
2022-08-26T15:21:47.652Z,26.83
2022-08-26T15:24:19.613Z,27.07
2022-08-26T15:26:48.448Z,28.93
2022-08-26T15:29:17.024Z,29.91
2022-08-26T15:31:45.420Z,30.15
2022-08-26T15:34:16.675Z,27.77
2022-08-26T15:36:47.070Z,32.12
2022-08-26T15:39:16.472Z,32.64
2022-08-26T15:41:44.923Z,36.02
2022-08-26T15:44:14.494Z,34.60
2022-08-26T15:46:43.349Z,31.85
2022-08-26T15:49:17.502Z,32.39
2022-08-26T15:51:48.097Z,31.66
2022-08-26T15:54:17.548Z,32.44
2022-08-26T15:56:47.313Z,37.07
2022-08-26T15:59:16.912Z,35.28
2022-08-26T16:01:45.075Z,30.73
2022-08-26T16:04:14.160Z,26.89
2022-08-26T16:06:43.654Z,27.26
2022-08-26T16:09:11.449Z,29.68
2022-08-26T16:11:39.629Z,28.37
2022-08-26T16:14:08.002Z,34.57
2022-08-26T16:16:40.025Z,32.95
2022-08-26T16:19:09.463Z,35.70
2022-08-26T16:21:38.566Z,38.89
2022-08-26T16:24:07.563Z,37.51
2022-08-26T16:26:38.748Z,36.22
2022-08-26T16:29:09.915Z,35.46
2022-08-26T16:31:39.685Z,39.33
2022-08-26T16:34:08.684Z,42.48
2022-08-26T16:36:38.013Z,43.60
2022-08-26T16:39:07.498Z,43.03
2022-08-26T16:41:36.301Z,42.96
2022-08-26T16:44:05.508Z,42.53
2022-08-26T16:46:34.596Z,42.41
2022-08-26T16:49:06.385Z,42.84
2022-08-26T16:51:38.168Z,45.40
2022-08-26T16:54:08.189Z,44.66
2022-08-26T16:56:37.886Z,45.12
2022-08-26T16:59:07.819Z,43.80
2022-08-26T17:01:36.893Z,47.85
2022-08-26T17:04:06.124Z,48.61
2022-08-26T17:06:34.371Z,48.24
2022-08-26T17:09:02.840Z,50.32
2022-08-26T17:11:31.274Z,48.21
2022-08-26T17:13:59.516Z,48.88
2022-08-26T17:16:28.353Z,48.72
2022-08-26T17:18:58.133Z,49.84
2022-08-26T17:21:27.532Z,50.76
2022-08-26T17:23:56.456Z,50.20
2022-08-26T17:26:24.995Z,50.53
2022-08-26T17:28:53.747Z,51.08
2022-08-26T17:31:23.906Z,53.91
2022-08-26T17:33:54.332Z,52.90
2022-08-26T17:36:27.929Z,53.85
2022-08-26T17:38:57.965Z,53.81
2022-08-26T17:41:26.783Z,54.80
2022-08-26T17:43:55.348Z,53.69
2022-08-26T17:46:25.039Z,52.06
2022-08-26T17:48:53.752Z,53.46
2022-08-26T17:51:23.628Z,52.86
2022-08-26T17:53:52.527Z,53.08
2022-08-26T17:56:26.500Z,56.06
2022-08-26T17:58:57.928Z,59.03
2022-08-26T18:01:31.401Z,58.33
2022-08-26T18:04:00.719Z,62.42
2022-08-26T18:06:30.541Z,60.80
2022-08-26T18:08:59.479Z,59.30
2022-08-26T18:11:28.528Z,59.49
2022-08-26T18:13:56.362Z,59.84
2022-08-26T18:16:24.940Z,57.56
2022-08-26T18:18:53.726Z,59.08
2022-08-26T18:21:24.243Z,59.31
2022-08-26T18:23:52.521Z,58.66
2022-08-26T18:26:30.368Z,60.81
2022-08-26T18:28:58.915Z,62.13
2022-08-26T18:31:27.886Z,62.90
2022-08-26T18:33:56.097Z,61.32
2022-08-26T18:36:31.180Z,60.12
2022-08-26T18:38:59.565Z,60.34
2022-08-26T18:41:29.740Z,62.97
2022-08-26T18:43:57.921Z,59.98
2022-08-26T18:46:27.386Z,61.18
2022-08-26T18:48:56.197Z,59.82
2022-08-26T18:51:26.980Z,61.29
2022-08-26T18:53:55.685Z,59.58
2022-08-26T18:56:24.997Z,60.80
2022-08-26T18:58:53.264Z,61.30
2022-08-26T19:01:25.497Z,61.89
2022-08-26T19:03:56.947Z,60.89
2022-08-26T19:06:26.736Z,61.55
2022-08-26T19:08:55.682Z,62.06
2022-08-26T19:11:32.275Z,61.29
2022-08-26T19:14:07.453Z,62.65
2022-08-26T19:16:36.386Z,65.26
2022-08-26T19:19:04.908Z,63.46
2022-08-26T19:21:34.119Z,62.14
2022-08-26T19:24:05.996Z,62.04
2022-08-26T19:26:34.786Z,62.86
2022-08-26T19:29:04.058Z,62.87
2022-08-26T19:31:31.996Z,61.00
2022-08-26T19:34:00.071Z,62.84
2022-08-26T19:36:29.044Z,64.49
2022-08-26T19:38:57.613Z,64.42
2022-08-26T19:41:37.024Z,64.25
2022-08-26T19:44:09.597Z,63.13
2022-08-26T19:49:07.127Z,65.50
2022-08-26T19:51:36.524Z,63.99
2022-08-26T19:54:04.744Z,66.05
2022-08-26T19:56:32.994Z,66.59
2022-08-26T19:59:01.220Z,68.81
2022-08-26T20:01:29.097Z,65.94
2022-08-26T20:03:57.220Z,65.77
2022-08-26T20:06:24.978Z,66.90
2022-08-26T20:08:53.871Z,66.80
2022-08-26T20:11:24.028Z,69.46
2022-08-26T20:13:51.782Z,64.22
2022-08-26T20:16:19.970Z,66.70
2022-08-26T20:19:06.669Z,65.79
2022-08-26T20:21:38.225Z,65.19
2022-08-26T20:24:09.443Z,67.03
2022-08-26T20:26:39.012Z,67.33
2022-08-26T20:29:08.323Z,68.53
2022-08-26T20:31:36.605Z,65.88
2022-08-26T20:34:05.380Z,62.34
2022-08-26T20:36:34.401Z,64.76
2022-08-26T20:39:02.515Z,65.79
2022-08-26T20:41:30.628Z,64.62
2022-08-26T20:43:59.070Z,66.26
2022-08-26T20:46:27.372Z,66.36
2022-08-26T20:48:55.333Z,66.96
2022-08-26T20:51:27.379Z,67.36
2022-08-26T20:53:55.384Z,66.62
2022-08-26T20:56:26.142Z,69.61
2022-08-26T20:58:55.627Z,67.01
2022-08-26T21:01:26.204Z,66.68
2022-08-26T21:03:55.582Z,69.18
2022-08-26T21:06:24.039Z,64.39
2022-08-26T21:08:51.831Z,65.49
2022-08-26T21:11:21.644Z,65.64
2022-08-26T21:14:04.472Z,65.45
2022-08-26T21:16:36.975Z,65.49
2022-08-26T21:19:06.601Z,64.88
2022-08-26T21:21:35.152Z,65.21
2022-08-26T21:24:04.315Z,65.51
2022-08-26T21:26:32.657Z,65.42
2022-08-26T21:29:01.757Z,65.53
2022-08-26T21:31:32.155Z,66.20
2022-08-26T21:34:00.229Z,67.15
2022-08-26T21:36:28.004Z,67.02
2022-08-26T21:38:59.708Z,69.38
2022-08-26T21:41:27.824Z,65.74
2022-08-26T21:43:59.335Z,67.37
2022-08-26T21:46:30.357Z,67.69
2022-08-26T21:49:02.962Z,65.73
2022-08-26T21:51:34.776Z,67.04
2022-08-26T21:54:08.622Z,66.70
2022-08-26T21:56:41.840Z,65.94
2022-08-26T21:59:10.412Z,65.53
2022-08-26T22:01:38.600Z,65.10
2022-08-26T22:04:08.315Z,64.31
2022-08-26T22:06:42.438Z,64.89
2022-08-26T22:09:11.894Z,66.21
2022-08-26T22:11:39.763Z,65.80
2022-08-26T22:14:08.286Z,65.56
2022-08-26T22:16:36.402Z,66.49
2022-08-26T22:19:04.363Z,66.07
2022-08-26T22:21:32.477Z,66.38
2022-08-26T22:24:00.666Z,64.48
2022-08-26T22:26:30.505Z,64.56
2022-08-26T22:29:00.264Z,66.49
2022-08-26T22:31:37.846Z,64.54
2022-08-26T22:34:15.263Z,64.08
2022-08-26T22:36:46.698Z,66.87
2022-08-26T22:39:16.710Z,63.53
2022-08-26T22:41:45.451Z,62.86
2022-08-26T22:44:13.187Z,63.66
2022-08-26T22:46:41.641Z,64.59
2022-08-26T22:49:12.748Z,65.07
2022-08-26T22:51:40.557Z,65.49
2022-08-26T22:54:08.856Z,65.63
2022-08-26T22:56:37.115Z,64.95
2022-08-26T22:59:06.895Z,66.92
2022-08-26T23:01:36.966Z,66.55
2022-08-26T23:04:06.428Z,67.66
2022-08-26T23:06:38.757Z,66.90
2022-08-26T23:09:07.975Z,67.11
2022-08-26T23:11:36.396Z,67.57
2022-08-26T23:14:06.304Z,66.66
2022-08-26T23:16:38.006Z,67.74
2022-08-26T23:19:09.188Z,66.25
2022-08-26T23:21:37.834Z,66.75
2022-08-26T23:24:07.197Z,66.95
2022-08-26T23:26:36.155Z,67.11
2022-08-26T23:29:06.262Z,67.26
2022-08-26T23:31:34.469Z,66.19
2022-08-26T23:34:21.014Z,66.26
2022-08-26T23:36:49.123Z,67.51
2022-08-26T23:39:17.130Z,68.09
2022-08-26T23:41:44.921Z,67.91
2022-08-26T23:44:13.251Z,67.59
2022-08-26T23:46:41.069Z,66.30
2022-08-26T23:49:08.856Z,66.30
2022-08-26T23:51:56.972Z,67.15
2022-08-26T23:54:24.786Z,68.05
2022-08-26T23:56:52.987Z,68.90
2022-08-26T23:59:20.947Z,69.37
